Terminal Aerodrome Forecast
Issued by NWS

Home | Current Version | Previous Version | Text Only | Print | Product List | Glossary On
Versions: 1 2 3 4 5 6 7 8 9 10 11 12 13 14 15 16 17 18 19 20 21 22 23 24 25 26 27 28 29 30 31
810
FTUS44 KLZK 232339
TAFHRO
TAF
KHRO 232339Z 2400/2424 10007KT 6SM -RA BR BKN002 OVC008
      TEMPO 2400/2404 3SM RA BR OVC002
     FM240400 10007KT 5SM -RA BR VCTS BKN005 OVC030CB
      TEMPO 2404/2408 2SM RA BR BKN002 OVC015
     FM240800 10007KT 3SM RA BR VCTS BKN005 OVC020CB
      TEMPO 2408/2412 1SM RA BR OVC002=

USA.gov is the U.S. government's official web portal to all federal, state and local government web resources and services.